KMCE/MCE METAR and TAF weather

Enter ICAO airport designator
Station Type Date Time Source
KMCE METAR 2019/10/14 04:53 UTC NOAA

KMCE 140453Z AUTO 27004KT 10SM CLR 15/05 A2982 RMK AO2 SLP097 T01500050


Station Type Date Time Source
KMCE Decoded METAR 2019/10/14 04:53 UTC NOAA

MERCED MUNICIPAL AIRPORT, CA, United States (KMCE) 37-17N 120-30W 47M
Oct 14, 2019 - 12:53 AM EDT / 2019.10.14 0453 UTC
Wind: from the W (270 degrees) at 5 MPH (4 KT):0
Visibility: 10 mile(s):0
Sky conditions: clear
Temperature: 59.0 F (15.0 C)
Dew Point: 41.0 F (5.0 C)
Relative Humidity: 51%
Pressure (altimeter): 29.82 in. Hg (1009 hPa)
ob: KMCE 140453Z AUTO 27004KT 10SM CLR 15/05 A2982 RMK AO2 SLP097 T01500050
cycle: 5

Station Type Date Time Source
KMCE TAF 2019/10/14 06:22 UTC NOAA

TAF KMCE 140520Z 1406/1506 29004KT P6SM FEW200
FM140900 VRB04KT P6SM SKC

Example: see airport list